Talanta — SJEP — position and weather

sailwx.info

Track history (hours):
 
Tides and Currents Weather Stations Pressure Air Temp Water Temp Dewpoint Dewpoint Depression Visibility Wind Speed Wind Dir Waves Ship Positions

Talanta

Last reported at 2017-Nov-19 14:10 UTC. Time now 2017-Nov-21 04:42 UTC.
Position N 27°59' W 015°20'.

Length 12 m.

Type: Sailing vessel. MMSI: 265756360.

Date/timePositionNaut miles runAvg speedWind from/ knotsBaromVisibWave heightAir tempDewpointWater temp
2017-Nov-19 14:10N 27°59' W 015°20'1 7.0
2017-Nov-19 14:00N 27°60' W 015°20'3 6.1
2017-Nov-19 13:30N 28°02' W 015°22'3 6.4
2017-Nov-19 13:00N 28°05' W 015°23'2 3.3
2017-Nov-19 12:30N 28°07' W 015°24'0 0.6
2017-Nov-19 12:00N 28°06' W 015°24'2 3.1
2017-Nov-19 11:29N 28°08' W 015°26'0 0.0
2017-Nov-19 10:59N 28°08' W 015°26'0 0.0
2017-Nov-19 10:21N 28°08' W 015°26'0 0.0
2017-Nov-19 09:51N 28°08' W 015°26'0 0.0
2017-Nov-19 09:24N 28°08' W 015°26'0 0.0
2017-Nov-18 13:06N 28°08' W 015°26'0 0.0
2017-Nov-17 19:16N 28°08' W 015°26'0 0.0
2017-Nov-17 18:58N 28°08' W 015°26'0 0.0
2017-Nov-17 18:26N 28°08' W 015°26'0 0.0
2017-Nov-17 17:59N 28°08' W 015°26'0 0.0
2017-Nov-17 17:29N 28°08' W 015°26'0 0.0
2017-Nov-17 16:59N 28°08' W 015°26'0 0.0
2017-Nov-17 13:32N 28°08' W 015°26'0 0.1
2017-Nov-17 13:29N 28°08' W 015°26'0 0.0
2017-Nov-17 12:59N 28°08' W 015°26'0 0.0
2017-Nov-17 12:29N 28°08' W 015°26'0 0.0
2017-Nov-17 11:59N 28°08' W 015°26'0 0.0
2017-Nov-17 11:29N 28°08' W 015°26'0 0.0
2017-Nov-16 17:53N 28°08' W 015°26'0 0.0
2017-Nov-16 17:27N 28°08' W 015°26'0 0.0
2017-Nov-16 16:57N 28°08' W 015°26'0 0.0
2017-Nov-16 16:27N 28°08' W 015°26'0 0.0
2017-Nov-16 15:57N 28°08' W 015°26'0 1.0
2017-Nov-16 15:30N 28°07' W 015°25'2 3.1
2017-Nov-16 15:00N 28°08' W 015°24'0 0.7
2017-Nov-16 14:30N 28°08' W 015°23'1 2.9
2017-Nov-16 14:00N 28°07' W 015°24'1 2.4
2017-Nov-16 13:28N 28°08' W 015°26'0 0.0
2017-Nov-16 12:58N 28°08' W 015°26'0 0.0
2017-Nov-16 12:25N 28°08' W 015°26'0 0.0
2017-Nov-16 11:58N 28°08' W 015°26'0 0.0
2017-Nov-16 11:28N 28°08' W 015°26'0 0.0
2017-Nov-16 10:58N 28°08' W 015°26'  
2017-Nov-11 17:20N 28°08' W 015°26'0 0.0
2017-Nov-11 16:59N 28°08' W 015°26'0 0.0
2017-Nov-11 16:17N 28°08' W 015°26'0 0.0
2017-Nov-11 15:59N 28°08' W 015°26'0 0.0
2017-Nov-11 15:29N 28°08' W 015°26'0 0.0
2017-Nov-11 14:59N 28°08' W 015°26'0 0.0
2017-Nov-11 14:29N 28°08' W 015°26'0 0.0
2017-Nov-11 13:59N 28°08' W 015°26'0 0.0
2017-Nov-11 13:29N 28°08' W 015°26'0 0.0
2017-Nov-11 12:50N 28°08' W 015°26'0 1.2
2017-Nov-11 12:29N 28°08' W 015°25'2 3.1
2017-Nov-11 11:59N 28°08' W 015°24'3 5.2
2017-Nov-11 11:28N 28°11' W 015°24'4 6.9
2017-Nov-11 10:58N 28°14' W 015°25'4 8.5
2017-Nov-11 10:27N 28°18' W 015°27'4 8.7
2017-Nov-11 10:00N 28°22' W 015°29'5 8.9
2017-Nov-11 09:29N 28°26' W 015°31'5 9.1
2017-Nov-11 08:55N 28°31' W 015°33'16 9.8
2017-Nov-11 07:17N 28°46' W 015°40'410.3
2017-Nov-11 06:55N 28°50' W 015°40'4 9.9
2017-Nov-11 06:30N 28°54' W 015°41'5 9.9
2017-Nov-11 06:00N 28°59' W 015°42'5 9.9
2017-Nov-11 05:30N 29°03' W 015°43'510.3
2017-Nov-11 05:00N 29°09' W 015°44'510.6
2017-Nov-11 04:30N 29°14' W 015°45'  
Track history (hours):
 
Tides and Currents Weather Stations Pressure Air Temp Water Temp Dewpoint Dewpoint Depression Visibility Wind Speed Wind Dir Waves Ship Positions

Talanta

Last reported at 2017-Nov-19 14:10 UTC. Time now 2017-Nov-21 04:42 UTC.
Position N 27°59' W 015°20'.

Length 12 m.

Type: Sailing vessel. MMSI: 265756360.

Date/timePositionNaut miles runAvg speedWind from/ knotsBaromVisibWave heightAir tempDewpointWater temp
2017-Nov-19 14:10N 27°59' W 015°20'1 7.0
2017-Nov-19 14:00N 27°60' W 015°20'3 6.1
2017-Nov-19 13:30N 28°02' W 015°22'3 6.4
2017-Nov-19 13:00N 28°05' W 015°23'2 3.3
2017-Nov-19 12:30N 28°07' W 015°24'0 0.6
2017-Nov-19 12:00N 28°06' W 015°24'2 3.1
2017-Nov-19 11:29N 28°08' W 015°26'0 0.0
2017-Nov-19 10:59N 28°08' W 015°26'0 0.0
2017-Nov-19 10:21N 28°08' W 015°26'0 0.0
2017-Nov-19 09:51N 28°08' W 015°26'0 0.0
2017-Nov-19 09:24N 28°08' W 015°26'0 0.0
2017-Nov-18 13:06N 28°08' W 015°26'0 0.0
2017-Nov-17 19:16N 28°08' W 015°26'0 0.0
2017-Nov-17 18:58N 28°08' W 015°26'0 0.0
2017-Nov-17 18:26N 28°08' W 015°26'0 0.0
2017-Nov-17 17:59N 28°08' W 015°26'0 0.0
2017-Nov-17 17:29N 28°08' W 015°26'0 0.0
2017-Nov-17 16:59N 28°08' W 015°26'0 0.0
2017-Nov-17 13:32N 28°08' W 015°26'0 0.1
2017-Nov-17 13:29N 28°08' W 015°26'0 0.0
2017-Nov-17 12:59N 28°08' W 015°26'0 0.0
2017-Nov-17 12:29N 28°08' W 015°26'0 0.0
2017-Nov-17 11:59N 28°08' W 015°26'0 0.0
2017-Nov-17 11:29N 28°08' W 015°26'0 0.0
2017-Nov-16 17:53N 28°08' W 015°26'0 0.0
2017-Nov-16 17:27N 28°08' W 015°26'0 0.0
2017-Nov-16 16:57N 28°08' W 015°26'0 0.0
2017-Nov-16 16:27N 28°08' W 015°26'0 0.0
2017-Nov-16 15:57N 28°08' W 015°26'0 1.0
2017-Nov-16 15:30N 28°07' W 015°25'2 3.1
2017-Nov-16 15:00N 28°08' W 015°24'0 0.7
2017-Nov-16 14:30N 28°08' W 015°23'1 2.9
2017-Nov-16 14:00N 28°07' W 015°24'1 2.4
2017-Nov-16 13:28N 28°08' W 015°26'0 0.0
2017-Nov-16 12:58N 28°08' W 015°26'0 0.0
2017-Nov-16 12:25N 28°08' W 015°26'0 0.0
2017-Nov-16 11:58N 28°08' W 015°26'0 0.0
2017-Nov-16 11:28N 28°08' W 015°26'0 0.0
2017-Nov-16 10:58N 28°08' W 015°26'  
2017-Nov-11 17:20N 28°08' W 015°26'0 0.0
2017-Nov-11 16:59N 28°08' W 015°26'0 0.0
2017-Nov-11 16:17N 28°08' W 015°26'0 0.0
2017-Nov-11 15:59N 28°08' W 015°26'0 0.0
2017-Nov-11 15:29N 28°08' W 015°26'0 0.0
2017-Nov-11 14:59N 28°08' W 015°26'0 0.0
2017-Nov-11 14:29N 28°08' W 015°26'0 0.0
2017-Nov-11 13:59N 28°08' W 015°26'0 0.0
2017-Nov-11 13:29N 28°08' W 015°26'0 0.0
2017-Nov-11 12:50N 28°08' W 015°26'0 1.2
2017-Nov-11 12:29N 28°08' W 015°25'2 3.1
2017-Nov-11 11:59N 28°08' W 015°24'3 5.2
2017-Nov-11 11:28N 28°11' W 015°24'4 6.9
2017-Nov-11 10:58N 28°14' W 015°25'4 8.5
2017-Nov-11 10:27N 28°18' W 015°27'4 8.7
2017-Nov-11 10:00N 28°22' W 015°29'5 8.9
2017-Nov-11 09:29N 28°26' W 015°31'5 9.1
2017-Nov-11 08:55N 28°31' W 015°33'16 9.8
2017-Nov-11 07:17N 28°46' W 015°40'410.3
2017-Nov-11 06:55N 28°50' W 015°40'4 9.9
2017-Nov-11 06:30N 28°54' W 015°41'5 9.9
2017-Nov-11 06:00N 28°59' W 015°42'5 9.9
2017-Nov-11 05:30N 29°03' W 015°43'510.3
2017-Nov-11 05:00N 29°09' W 015°44'510.6
2017-Nov-11 04:30N 29°14' W 015°45'  

Dump ship's entire track history